Airport View

Enter AWOS ICAO identifier for current METAR.

ex. KFNL

K96D 022330Z AUTO 29010KT 10SM SCT090 BKN120 27/07 A2979 RMK AO2

2 Jun 2020 23:25

Frequency: 118.175

Phone: 701-549-3402

Other Area AWOS: K2C8 - CXMD - KD55 - CXDW

TAF AMD CYPG 022221Z 0218/0306 FCST CNCLD DUE END OF FLYING PROGRAM RMK NXT FCST WILL BE ISSUED AT 031215Z